x

Shelikof Strait, Ak (46077) Wave Buoy

7:50pm - Sun 27th Jul 2014 All times are AKDT. -8 hours from GMT.

  • Sig Wave height 1.3ft
  • Peak Period 5s
  • Average Period 4s
  • Wind
    7mph
  • Sea Temp 57°f
  • Air Temp 59°f
  • Sea Pressure 1015.4mb
  • Shelikof  Strait, Ak
  • Shelikof  Strait, Ak

More Historic Weather Station data

Upgrade to MSW Pro to gain access to the past 30 days of data for over 8000 Wavebouys and Weather Stations around the globe.

Join Pro

Comparision Forecast

View Surf forecast
   
Sun 07/27 7:50pm 1.3ft 5s 4s 7
mph
1015.4mb 57f 59f
6:50pm 1ft 5s 4s 7
mph
1015.1mb 57f 59f
5:50pm 1ft 5s 4s 7
mph
1014.8mb 57f 59f
4:50pm 1ft 4s 4s 7 9 mph 1014.8mb 57f 58f
3:50pm 1ft 4s 3s 7 9 mph 1014.7mb 56f 58f
2:50pm 1ft 4s 3s 9 11 mph 1014.5mb 56f 58f
1:50pm 1.3ft 3s 3s 9 11 mph 1014.4mb 56f 57f
12:50pm 1.6ft 3s 3s 9 11 mph 1014.2mb 56f 56f
11:50am 1.6ft 3s 3s 11
mph
1014.3mb 56f 56f
10:50am 1.6ft 4s 3s 9 11 mph 1014.1mb 56f 56f
9:50am 1.6ft 3s 3s 11 13 mph 1014.1mb 56f 56f
8:50am 1.6ft 3s 3s 13
mph
1014mb 56f 55f
7:50am 1.3ft 3s 3s 11 13 mph 1013.9mb 56f 56f
6:50am 1.3ft 3s 3s 9 11 mph 1013.8mb 56f 56f
5:50am 1ft 3s 3s 11 13 mph 1013.8mb 56f 55f
4:50am 0.7ft  -  3s 11
mph
1013.6mb 56f 56f
3:50am 0.7ft  -  3s 11 13 mph 1013.5mb 56f 56f
2:50am 1ft 4s 4s 9 11 mph 1013.6mb 56f 56f
1:50am 1ft 4s 4s 9
mph
1013.7mb 56f 56f
12:50am 1ft 4s 4s 4
mph
1013.9mb 57f 56f
Sat 07/26 11:50pm 0.7ft  -  4s 2
mph
1013.9mb 56f 56f
10:50pm 0.7ft  -  5s 2 4 mph 1013.8mb 57f 57f
9:50pm 0.7ft  -  5s 2
mph
1013.5mb 57f 58f
8:50pm 0.7ft  -  5s 4
mph
1013.4mb 57f 58f
7:50pm 0.7ft  -  5s 4
mph
1013.2mb 57f 58f
6:50pm 0.7ft  -  4s 2
mph
1013.1mb 58f 58f
5:50pm 0.7ft  -  4s 7
mph
1013.1mb 57f 58f
4:50pm 0.7ft  -  4s 7
mph
1013mb 58f 58f
3:50pm 0.7ft  -  4s 4 7 mph 1012.8mb 57f 57f
2:50pm 0.7ft  -  4s 7 9 mph 1012.8mb 57f 56f
1:50pm 1ft 8s 4s 7 9 mph 1012.7mb 57f 56f
12:50pm 1ft 4s 3s 2 4 mph 1012.8mb 56f 56f
11:50am 1.3ft 3s 3s 4 7 mph 1012.8mb 56f 56f
10:50am 1.6ft 3s 3s 9 11 mph 1012.8mb 56f 55f
9:50am 1.6ft 3s 3s 11 13 mph 1012.8mb 56f 55f
8:50am 1.3ft 3s 3s 11 13 mph 1012.9mb 56f 55f
7:50am 1.3ft 3s 3s 11 13 mph 1012.6mb 56f 56f
5:50am 1ft 7s 4s 11 13 mph 1012.1mb 56f 55f
4:50am 1ft 7s 5s 9 11 mph 1012.2mb 57f 56f
3:50am 1ft 7s 4s 7 9 mph 1012.4mb 56f 57f
2:50am 1.3ft 5s 4s 7
mph
1012.4mb 55f 56f
1:50am 1.3ft 7s 4s 4 9 mph 1012.5mb 55f 56f
12:50am 1.3ft 5s 4s 2
mph
1012.2mb 55f 57f
Fri 07/25 11:50pm 1.3ft 5s 4s 4
mph
1012.4mb 56f 58f
10:50pm 1.3ft 5s 4s 4
mph
1012mb 57f 58f
9:50pm 1.3ft 6s 5s 9 11 mph 1011.5mb 58f 59f
8:50pm 1.3ft 6s 5s 7 9 mph 1011mb 58f 59f
7:50pm 1.3ft 6s 5s 7
mph
1010.7mb 58f 59f
6:50pm 1.6ft 5s 5s 2 4 mph 1010.4mb 58f 60f
5:50pm 1.6ft 7s 5s  -  mph 1010mb 56f 61f
4:50pm 1.6ft 6s 5s 2 4 mph 1009.9mb 57f 59f
3:50pm 1.6ft 7s 5s 4
mph
1009.6mb 56f 59f
2:50pm 2ft 7s 5s 2
mph
1009.5mb 56f 58f
1:50pm 2ft 7s 5s 2 4 mph 1009.4mb 56f 57f
12:50pm 2.5ft 7s 4s 2
mph
1009.3mb 55f 56f
11:50am 2.5ft 7s 4s 2 4 mph 1009.3mb 55f 55f
10:50am 2.5ft 7s 4s 7 9 mph 1009.5mb 55f 55f
9:50am 2.5ft 6s 4s 9 11 mph 1009.5mb 55f 55f
8:50am 1.6ft 8s 4s 11
mph
1009.4mb 55f 55f
7:50am 1.6ft 8s 5s 9 11 mph 1009.2mb 55f 55f
6:50am 1.6ft 8s 5s 4 7 mph 1009.3mb 54f 54f
5:50am 1.3ft 7s 5s 2
mph
1009.4mb 54f 54f
4:50am 1.3ft 8s 5s 2
mph
1009.5mb 54f 54f
3:50am 1.6ft 7s 5s 2 4 mph 1009.5mb 54f 54f
2:50am 1.6ft 7s 4s 2 4 mph 1009.5mb 54f 55f
1:50am 1.3ft 8s 4s 2 4 mph 1009.6mb 54f 55f
12:50am 1.6ft 7s 4s 7
mph
1009.6mb 54f 55f
Thu 07/24 11:50pm 2ft 7s 4s 9 11 mph 1009.9mb 54f 55f
10:50pm 2.5ft 7s 4s 11 13 mph 1010mb 54f 55f
9:50pm 2.5ft 8s 4s 13 16 mph 1010mb 54f 55f
8:50pm 2.5ft 4s 4s 16 18 mph 1010mb 54f 55f
7:50pm 2.5ft 8s 4s 16 18 mph 1010.2mb 54f 55f
6:50pm 2.5ft 7s 4s 13 16 mph 1010.5mb 54f 54f
5:50pm 2ft 7s 4s 13 18 mph 1010.5mb 54f 54f
4:50pm 2.5ft 8s 4s 13 16 mph 1010.7mb 54f 54f
3:50pm 2ft 7s 4s 13 16 mph 1010.7mb 54f 54f
2:50pm 2.5ft 7s 4s 13 16 mph 1010.7mb 54f 54f
1:50pm 2.5ft 7s 4s 13 16 mph 1010.8mb 54f 53f
12:50pm 3ft 3s 4s 13 16 mph 1010.9mb 54f 53f
11:50am 3ft 4s 4s 18 20 mph 1010.7mb 53f 53f
10:50am 3ft 6s 4s 13 16 mph 1011mb 53f 53f
9:50am 2.5ft 6s 4s 13 16 mph 1010.8mb 53f 53f
8:50am 2.5ft 6s 4s 11 13 mph 1011.1mb 54f 53f
7:50am 2.5ft 7s 4s 11 13 mph 1011.1mb 54f 53f
6:50am 2.5ft 6s 4s 13 16 mph 1011mb 55f 53f
5:50am 3ft 6s 4s 13 16 mph 1011mb 55f 53f
4:50am 3.5ft 5s 4s 16 18 mph 1011mb 54f 53f